sensor_id;sensor_type;location;lat;lon;timestamp;pressure;altitude;pressure_sealevel;temperature;humidity
39141;BME280;24875;48.436;10.298;2023-03-16T00:01:40;96657.09;;;1.49;99.09
39141;BME280;24875;48.436;10.298;2023-03-16T00:04:07;96650.78;;;1.41;99.71
39141;BME280;24875;48.436;10.298;2023-03-16T00:06:33;96642.56;;;1.47;99.75
39141;BME280;24875;48.436;10.298;2023-03-16T00:09:03;96654.03;;;1.55;99.17
39141;BME280;24875;48.436;10.298;2023-03-16T00:11:29;96652.34;;;1.43;98.07
39141;BME280;24875;48.436;10.298;2023-03-16T00:13:56;96651.19;;;1.24;98.58
39141;BME280;24875;48.436;10.298;2023-03-16T00:16:22;96653.44;;;1.28;99.58
39141;BME280;24875;48.436;10.298;2023-03-16T00:18:49;96649.47;;;1.35;99.64
39141;BME280;24875;48.436;10.298;2023-03-16T00:21:15;96650.41;;;1.34;98.75
39141;BME280;24875;48.436;10.298;2023-03-16T00:23:42;96651.13;;;1.36;98.39
39141;BME280;24875;48.436;10.298;2023-03-16T00:26:10;96639.91;;;1.36;98.46
39141;BME280;24875;48.436;10.298;2023-03-16T00:28:37;96648.88;;;1.09;99.33
39141;BME280;24875;48.436;10.298;2023-03-16T00:31:05;96642.75;;;1.10;100.00
39141;BME280;24875;48.436;10.298;2023-03-16T00:33:32;96647.81;;;1.11;99.71
39141;BME280;24875;48.436;10.298;2023-03-16T00:35:59;96648.81;;;1.21;99.76
39141;BME280;24875;48.436;10.298;2023-03-16T00:38:31;96657.44;;;1.21;100.00
39141;BME280;24875;48.436;10.298;2023-03-16T00:40:58;96654.88;;;1.09;100.00
39141;BME280;24875;48.436;10.298;2023-03-16T00:43:29;96656.81;;;1.18;100.00
39141;BME280;24875;48.436;10.298;2023-03-16T00:46:00;96652.50;;;1.29;100.00
39141;BME280;24875;48.436;10.298;2023-03-16T00:48:31;96653.66;;;1.25;100.00
39141;BME280;24875;48.436;10.298;2023-03-16T00:50:58;96657.59;;;1.31;100.00
39141;BME280;24875;48.436;10.298;2023-03-16T00:53:25;96655.66;;;1.22;100.00
39141;BME280;24875;48.436;10.298;2023-03-16T00:55:51;96654.69;;;1.12;100.00
39141;BME280;24875;48.436;10.298;2023-03-16T00:58:18;96661.53;;;0.77;100.00
39141;BME280;24875;48.436;10.298;2023-03-16T01:00:46;96657.69;;;0.83;100.00
39141;BME280;24875;48.436;10.298;2023-03-16T01:03:13;96652.72;;;0.67;100.00
39141;BME280;24875;48.436;10.298;2023-03-16T01:05:40;96650.63;;;0.85;100.00
39141;BME280;24875;48.436;10.298;2023-03-16T01:08:07;96644.97;;;1.03;100.00
39141;BME280;24875;48.436;10.298;2023-03-16T01:10:34;96651.97;;;1.14;100.00
39141;BME280;24875;48.436;10.298;2023-03-16T01:13:01;96657.59;;;1.08;100.00
39141;BME280;24875;48.436;10.298;2023-03-16T01:15:28;96659.38;;;1.07;100.00
39141;BME280;24875;48.436;10.298;2023-03-16T01:17:56;96651.44;;;1.21;100.00
39141;BME280;24875;48.436;10.298;2023-03-16T01:20:23;96639.13;;;1.12;100.00
39141;BME280;24875;48.436;10.298;2023-03-16T01:22:50;96637.66;;;1.08;100.00
39141;BME280;24875;48.436;10.298;2023-03-16T01:25:17;96639.94;;;1.13;100.00
39141;BME280;24875;48.436;10.298;2023-03-16T01:27:44;96636.41;;;1.14;100.00
39141;BME280;24875;48.436;10.298;2023-03-16T01:30:11;96631.34;;;1.23;100.00
39141;BME280;24875;48.436;10.298;2023-03-16T01:32:38;96635.56;;;1.13;100.00
39141;BME280;24875;48.436;10.298;2023-03-16T01:35:07;96633.34;;;1.19;100.00
39141;BME280;24875;48.436;10.298;2023-03-16T01:37:34;96626.03;;;1.14;100.00
39141;BME280;24875;48.436;10.298;2023-03-16T01:40:01;96634.97;;;1.10;100.00
39141;BME280;24875;48.436;10.298;2023-03-16T01:42:28;96634.13;;;1.09;100.00
39141;BME280;24875;48.436;10.298;2023-03-16T01:44:56;96625.03;;;1.04;100.00
39141;BME280;24875;48.436;10.298;2023-03-16T01:47:25;96626.06;;;1.01;100.00
39141;BME280;24875;48.436;10.298;2023-03-16T01:49:55;96622.44;;;1.04;99.72
39141;BME280;24875;48.436;10.298;2023-03-16T01:52:25;96621.78;;;0.89;99.08
39141;BME280;24875;48.436;10.298;2023-03-16T01:54:56;96624.03;;;0.94;100.00
39141;BME280;24875;48.436;10.298;2023-03-16T01:57:26;96621.78;;;0.89;100.00
39141;BME280;24875;48.436;10.298;2023-03-16T01:59:58;96619.06;;;0.91;100.00
39141;BME280;24875;48.436;10.298;2023-03-16T02:02:45;96611.16;;;0.92;100.00
39141;BME280;24875;48.436;10.298;2023-03-16T02:05:16;96607.53;;;0.95;100.00
39141;BME280;24875;48.436;10.298;2023-03-16T02:07:47;96605.97;;;0.92;100.00
39141;BME280;24875;48.436;10.298;2023-03-16T02:10:16;96607.03;;;0.90;99.86
39141;BME280;24875;48.436;10.298;2023-03-16T02:12:43;96604.97;;;0.82;100.00
39141;BME280;24875;48.436;10.298;2023-03-16T02:15:10;96601.88;;;0.77;100.00
39141;BME280;24875;48.436;10.298;2023-03-16T02:17:38;96599.50;;;0.74;100.00
39141;BME280;24875;48.436;10.298;2023-03-16T02:20:15;96603.41;;;0.57;100.00
39141;BME280;24875;48.436;10.298;2023-03-16T02:22:49;96603.06;;;0.61;100.00
39141;BME280;24875;48.436;10.298;2023-03-16T02:25:24;96607.19;;;0.76;100.00
39141;BME280;24875;48.436;10.298;2023-03-16T02:27:56;96609.00;;;0.86;100.00
39141;BME280;24875;48.436;10.298;2023-03-16T02:30:28;96612.88;;;0.81;100.00
39141;BME280;24875;48.436;10.298;2023-03-16T02:32:55;96607.41;;;0.73;100.00
39141;BME280;24875;48.436;10.298;2023-03-16T02:35:21;96615.63;;;0.67;100.00
39141;BME280;24875;48.436;10.298;2023-03-16T02:37:48;96604.72;;;0.62;100.00
39141;BME280;24875;48.436;10.298;2023-03-16T02:40:20;96609.78;;;0.76;100.00
39141;BME280;24875;48.436;10.298;2023-03-16T02:42:50;96614.28;;;0.61;99.84
39141;BME280;24875;48.436;10.298;2023-03-16T02:45:19;96613.06;;;0.55;100.00
39141;BME280;24875;48.436;10.298;2023-03-16T02:47:48;96616.25;;;0.58;100.00
39141;BME280;24875;48.436;10.298;2023-03-16T02:50:17;96608.19;;;0.62;100.00
39141;BME280;24875;48.436;10.298;2023-03-16T02:52:44;96613.94;;;0.66;99.67
39141;BME280;24875;48.436;10.298;2023-03-16T02:55:13;96616.25;;;0.58;100.00
39141;BME280;24875;48.436;10.298;2023-03-16T02:57:40;96616.03;;;0.61;100.00
39141;BME280;24875;48.436;10.298;2023-03-16T03:00:07;96615.00;;;0.63;100.00
39141;BME280;24875;48.436;10.298;2023-03-16T03:02:37;96611.88;;;0.58;100.00
39141;BME280;24875;48.436;10.298;2023-03-16T03:05:05;96608.56;;;0.69;98.65
39141;BME280;24875;48.436;10.298;2023-03-16T03:07:32;96609.41;;;0.57;99.26
39141;BME280;24875;48.436;10.298;2023-03-16T03:09:58;96600.00;;;0.56;99.96
39141;BME280;24875;48.436;10.298;2023-03-16T03:12:27;96603.72;;;0.52;99.68
39141;BME280;24875;48.436;10.298;2023-03-16T03:14:53;96596.59;;;0.43;99.26
39141;BME280;24875;48.436;10.298;2023-03-16T03:17:21;96591.13;;;0.35;100.00
39141;BME280;24875;48.436;10.298;2023-03-16T03:19:54;96589.47;;;0.34;100.00
39141;BME280;24875;48.436;10.298;2023-03-16T03:22:22;96586.44;;;0.40;100.00
39141;BME280;24875;48.436;10.298;2023-03-16T03:24:48;96590.66;;;0.18;100.00
39141;BME280;24875;48.436;10.298;2023-03-16T03:27:15;96578.00;;;0.13;100.00
39141;BME280;24875;48.436;10.298;2023-03-16T03:29:42;96582.03;;;0.17;100.00
39141;BME280;24875;48.436;10.298;2023-03-16T03:32:09;96575.28;;;0.27;100.00
39141;BME280;24875;48.436;10.298;2023-03-16T03:34:36;96587.50;;;0.25;100.00
39141;BME280;24875;48.436;10.298;2023-03-16T03:37:02;96582.31;;;0.25;100.00
39141;BME280;24875;48.436;10.298;2023-03-16T03:39:30;96584.78;;;0.39;100.00
39141;BME280;24875;48.436;10.298;2023-03-16T03:41:57;96577.66;;;0.30;100.00
39141;BME280;24875;48.436;10.298;2023-03-16T03:44:23;96579.31;;;0.31;100.00
39141;BME280;24875;48.436;10.298;2023-03-16T03:46:51;96583.56;;;0.32;100.00
39141;BME280;24875;48.436;10.298;2023-03-16T03:49:18;96578.78;;;0.39;100.00
39141;BME280;24875;48.436;10.298;2023-03-16T03:51:44;96586.69;;;0.25;100.00
39141;BME280;24875;48.436;10.298;2023-03-16T03:54:11;96587.09;;;0.31;100.00
39141;BME280;24875;48.436;10.298;2023-03-16T03:56:39;96586.44;;;0.40;100.00
39141;BME280;24875;48.436;10.298;2023-03-16T03:59:05;96594.06;;;0.18;100.00
39141;BME280;24875;48.436;10.298;2023-03-16T04:01:32;96590.72;;;0.29;100.00
39141;BME280;24875;48.436;10.298;2023-03-16T04:03:58;96585.31;;;0.32;100.00
39141;BME280;24875;48.436;10.298;2023-03-16T04:06:25;96585.66;;;0.27;100.00
39141;BME280;24875;48.436;10.298;2023-03-16T04:08:51;96583.34;;;0.35;100.00
39141;BME280;24875;48.436;10.298;2023-03-16T04:11:19;96586.78;;;0.36;100.00
39141;BME280;24875;48.436;10.298;2023-03-16T04:13:50;96581.28;;;0.40;100.00
39141;BME280;24875;48.436;10.298;2023-03-16T04:16:16;96583.69;;;0.31;100.00
39141;BME280;24875;48.436;10.298;2023-03-16T04:18:43;96578.41;;;0.32;100.00
39141;BME280;24875;48.436;10.298;2023-03-16T04:21:13;96582.09;;;0.41;100.00
39141;BME280;24875;48.436;10.298;2023-03-16T04:23:40;96570.34;;;0.24;100.00
39141;BME280;24875;48.436;10.298;2023-03-16T04:26:06;96575.72;;;0.21;100.00
39141;BME280;24875;48.436;10.298;2023-03-16T04:28:33;96572.59;;;0.16;100.00
39141;BME280;24875;48.436;10.298;2023-03-16T04:31:02;96567.59;;;0.38;100.00
39141;BME280;24875;48.436;10.298;2023-03-16T04:33:29;96568.66;;;0.36;100.00
39141;BME280;24875;48.436;10.298;2023-03-16T04:35:56;96564.50;;;0.33;100.00
39141;BME280;24875;48.436;10.298;2023-03-16T04:38:23;96552.75;;;0.40;100.00
39141;BME280;24875;48.436;10.298;2023-03-16T04:40:49;96557.84;;;0.29;100.00
39141;BME280;24875;48.436;10.298;2023-03-16T04:43:17;96565.09;;;0.37;100.00
39141;BME280;24875;48.436;10.298;2023-03-16T04:45:44;96560.25;;;0.32;100.00
39141;BME280;24875;48.436;10.298;2023-03-16T04:48:12;96558.69;;;0.42;100.00
39141;BME280;24875;48.436;10.298;2023-03-16T04:50:38;96572.16;;;0.35;100.00
39141;BME280;24875;48.436;10.298;2023-03-16T04:53:05;96565.31;;;0.34;100.00
39141;BME280;24875;48.436;10.298;2023-03-16T04:55:32;96558.94;;;0.27;100.00
39141;BME280;24875;48.436;10.298;2023-03-16T04:57:58;96567.28;;;0.30;100.00
39141;BME280;24875;48.436;10.298;2023-03-16T05:00:26;96567.59;;;0.38;100.00
39141;BME280;24875;48.436;10.298;2023-03-16T05:02:53;96560.13;;;0.34;100.00
39141;BME280;24875;48.436;10.298;2023-03-16T05:05:21;96557.66;;;0.32;100.00
39141;BME280;24875;48.436;10.298;2023-03-16T05:07:48;96552.19;;;0.24;100.00
39141;BME280;24875;48.436;10.298;2023-03-16T05:10:16;96549.38;;;0.27;100.00
39141;BME280;24875;48.436;10.298;2023-03-16T05:12:44;96543.78;;;0.33;100.00
39141;BME280;24875;48.436;10.298;2023-03-16T05:15:11;96537.75;;;0.33;100.00
39141;BME280;24875;48.436;10.298;2023-03-16T05:17:38;96543.06;;;0.19;100.00
39141;BME280;24875;48.436;10.298;2023-03-16T05:20:06;96547.28;;;0.32;100.00
39141;BME280;24875;48.436;10.298;2023-03-16T05:22:39;96547.81;;;0.37;100.00
39141;BME280;24875;48.436;10.298;2023-03-16T05:25:06;96546.94;;;0.37;99.20
39141;BME280;24875;48.436;10.298;2023-03-16T05:27:33;96549.69;;;0.23;100.00
39141;BME280;24875;48.436;10.298;2023-03-16T05:29:59;96548.13;;;0.20;100.00
39141;BME280;24875;48.436;10.298;2023-03-16T05:32:26;96544.09;;;0.16;100.00
39141;BME280;24875;48.436;10.298;2023-03-16T05:34:52;96551.69;;;0.19;100.00
39141;BME280;24875;48.436;10.298;2023-03-16T05:37:19;96542.31;;;0.29;100.00
39141;BME280;24875;48.436;10.298;2023-03-16T05:39:47;96539.09;;;0.38;99.91
39141;BME280;24875;48.436;10.298;2023-03-16T05:42:13;96537.75;;;0.33;99.19
39141;BME280;24875;48.436;10.298;2023-03-16T05:44:40;96537.97;;;0.30;99.54
39141;BME280;24875;48.436;10.298;2023-03-16T05:47:06;96551.44;;;0.35;99.91
39141;BME280;24875;48.436;10.298;2023-03-16T05:49:33;96548.72;;;0.36;100.00
39141;BME280;24875;48.436;10.298;2023-03-16T05:51:59;96552.09;;;0.26;100.00
39141;BME280;24875;48.436;10.298;2023-03-16T05:54:26;96558.06;;;0.26;100.00
39141;BME280;24875;48.436;10.298;2023-03-16T05:56:54;96559.09;;;0.36;100.00
39141;BME280;24875;48.436;10.298;2023-03-16T05:59:20;96558.88;;;0.39;100.00
39141;BME280;24875;48.436;10.298;2023-03-16T06:01:46;96557.81;;;0.42;100.00
39141;BME280;24875;48.436;10.298;2023-03-16T06:04:14;96554.03;;;0.58;100.00
39141;BME280;24875;48.436;10.298;2023-03-16T06:06:41;96551.13;;;0.62;100.00
39141;BME280;24875;48.436;10.298;2023-03-16T06:09:07;96556.31;;;0.62;100.00
39141;BME280;24875;48.436;10.298;2023-03-16T06:11:34;96552.94;;;0.73;100.00
39141;BME280;24875;48.436;10.298;2023-03-16T06:14:02;96551.13;;;0.86;100.00
39141;BME280;24875;48.436;10.298;2023-03-16T06:16:29;96549.56;;;0.83;100.00
39141;BME280;24875;48.436;10.298;2023-03-16T06:18:56;96552.91;;;0.85;100.00
39141;BME280;24875;48.436;10.298;2023-03-16T06:21:22;96552.59;;;0.77;100.00
39141;BME280;24875;48.436;10.298;2023-03-16T06:23:49;96548.53;;;0.86;100.00
39141;BME280;24875;48.436;10.298;2023-03-16T06:26:15;96549.97;;;0.90;100.00
39141;BME280;24875;48.436;10.298;2023-03-16T06:28:41;96554.31;;;0.89;100.00
39141;BME280;24875;48.436;10.298;2023-03-16T06:31:09;96551.56;;;1.03;100.00
39141;BME280;24875;48.436;10.298;2023-03-16T06:33:36;96564.41;;;1.05;100.00
39141;BME280;24875;48.436;10.298;2023-03-16T06:36:03;96561.41;;;1.21;100.00
39141;BME280;24875;48.436;10.298;2023-03-16T06:38:29;96548.75;;;1.17;100.00
39141;BME280;24875;48.436;10.298;2023-03-16T06:40:56;96552.22;;;1.28;100.00
39141;BME280;24875;48.436;10.298;2023-03-16T06:43:23;96550.81;;;1.35;100.00
39141;BME280;24875;48.436;10.298;2023-03-16T06:45:49;96546.63;;;1.45;100.00
39141;BME280;24875;48.436;10.298;2023-03-16T06:48:17;96549.69;;;1.50;100.00
39141;BME280;24875;48.436;10.298;2023-03-16T06:50:44;96540.72;;;1.54;100.00
39141;BME280;24875;48.436;10.298;2023-03-16T06:53:11;96540.00;;;1.52;100.00
39141;BME280;24875;48.436;10.298;2023-03-16T06:55:37;96542.03;;;1.60;100.00
39141;BME280;24875;48.436;10.298;2023-03-16T06:58:04;96542.16;;;1.69;100.00
39141;BME280;24875;48.436;10.298;2023-03-16T07:00:31;96529.44;;;1.77;100.00
39141;BME280;24875;48.436;10.298;2023-03-16T07:02:58;96533.91;;;1.86;100.00
39141;BME280;24875;48.436;10.298;2023-03-16T07:05:26;96544.16;;;1.98;100.00
39141;BME280;24875;48.436;10.298;2023-03-16T07:07:52;96542.19;;;2.02;100.00
39141;BME280;24875;48.436;10.298;2023-03-16T07:10:19;96536.41;;;1.87;100.00
39141;BME280;24875;48.436;10.298;2023-03-16T07:12:46;96538.50;;;2.04;100.00
39141;BME280;24875;48.436;10.298;2023-03-16T07:15:12;96541.94;;;2.05;100.00
39141;BME280;24875;48.436;10.298;2023-03-16T07:17:40;96548.78;;;2.28;100.00
39141;BME280;24875;48.436;10.298;2023-03-16T07:20:08;96554.09;;;2.26;100.00
39141;BME280;24875;48.436;10.298;2023-03-16T07:22:39;96552.31;;;2.38;100.00
39141;BME280;24875;48.436;10.298;2023-03-16T07:25:06;96553.84;;;2.40;100.00
39141;BME280;24875;48.436;10.298;2023-03-16T07:27:33;96559.63;;;2.33;100.00
39141;BME280;24875;48.436;10.298;2023-03-16T07:30:00;96556.09;;;2.44;100.00
39141;BME280;24875;48.436;10.298;2023-03-16T07:32:26;96550.06;;;2.44;100.00
39141;BME280;24875;48.436;10.298;2023-03-16T07:34:53;96550.38;;;2.61;100.00
39141;BME280;24875;48.436;10.298;2023-03-16T07:37:19;96550.00;;;2.66;100.00
39141;BME280;24875;48.436;10.298;2023-03-16T07:39:47;96556.72;;;2.79;100.00
39141;BME280;24875;48.436;10.298;2023-03-16T07:42:14;96554.81;;;2.81;100.00
39141;BME280;24875;48.436;10.298;2023-03-16T07:44:40;96556.47;;;2.82;100.00
39141;BME280;24875;48.436;10.298;2023-03-16T07:47:08;96549.91;;;2.99;100.00
39141;BME280;24875;48.436;10.298;2023-03-16T07:49:37;96553.03;;;3.13;100.00
39141;BME280;24875;48.436;10.298;2023-03-16T07:52:05;96551.28;;;3.13;100.00
39141;BME280;24875;48.436;10.298;2023-03-16T07:54:32;96549.06;;;3.29;100.00
39141;BME280;24875;48.436;10.298;2023-03-16T07:57:00;96540.81;;;3.45;100.00
39141;BME280;24875;48.436;10.298;2023-03-16T07:59:26;96544.47;;;3.22;100.00
39141;BME280;24875;48.436;10.298;2023-03-16T08:01:53;96539.25;;;3.33;100.00
39141;BME280;24875;48.436;10.298;2023-03-16T08:04:20;96538.59;;;3.61;100.00
39141;BME280;24875;48.436;10.298;2023-03-16T08:06:50;96545.59;;;3.60;100.00
39141;BME280;24875;48.436;10.298;2023-03-16T08:09:24;96552.25;;;3.73;100.00
39141;BME280;24875;48.436;10.298;2023-03-16T08:11:52;96547.72;;;3.75;100.00
39141;BME280;24875;48.436;10.298;2023-03-16T08:14:22;96551.31;;;3.74;100.00
39141;BME280;24875;48.436;10.298;2023-03-16T08:16:50;96544.72;;;3.70;100.00
39141;BME280;24875;48.436;10.298;2023-03-16T08:19:19;96543.47;;;3.95;100.00
39141;BME280;24875;48.436;10.298;2023-03-16T08:21:47;96547.66;;;4.16;100.00
39141;BME280;24875;48.436;10.298;2023-03-16T08:24:18;96556.19;;;4.18;100.00
39141;BME280;24875;48.436;10.298;2023-03-16T08:26:47;96551.06;;;4.37;100.00
39141;BME280;24875;48.436;10.298;2023-03-16T08:29:16;96542.59;;;4.54;99.90
39141;BME280;24875;48.436;10.298;2023-03-16T08:31:54;96550.63;;;4.81;96.76
39141;BME280;24875;48.436;10.298;2023-03-16T08:34:36;96542.47;;;4.55;99.33
39141;BME280;24875;48.436;10.298;2023-03-16T08:37:04;96550.09;;;4.86;100.00
39141;BME280;24875;48.436;10.298;2023-03-16T08:39:32;96545.56;;;4.88;94.89
39141;BME280;24875;48.436;10.298;2023-03-16T08:42:01;96553.03;;;5.12;96.92
39141;BME280;24875;48.436;10.298;2023-03-16T08:44:30;96552.31;;;5.10;95.04
39141;BME280;24875;48.436;10.298;2023-03-16T08:46:59;96546.81;;;5.32;93.17
39141;BME280;24875;48.436;10.298;2023-03-16T08:49:27;96547.09;;;5.29;92.34
39141;BME280;24875;48.436;10.298;2023-03-16T08:51:55;96549.16;;;5.44;92.15
39141;BME280;24875;48.436;10.298;2023-03-16T08:54:25;96550.25;;;5.51;90.83
39141;BME280;24875;48.436;10.298;2023-03-16T08:56:53;96553.97;;;5.77;90.45
39141;BME280;24875;48.436;10.298;2023-03-16T08:59:21;96558.88;;;5.99;88.79
39141;BME280;24875;48.436;10.298;2023-03-16T09:01:49;96551.44;;;6.04;88.56
39141;BME280;24875;48.436;10.298;2023-03-16T09:04:18;96544.88;;;5.81;91.38
39141;BME280;24875;48.436;10.298;2023-03-16T09:06:47;96542.78;;;5.75;93.78
39141;BME280;24875;48.436;10.298;2023-03-16T09:09:16;96540.72;;;5.69;93.13
39141;BME280;24875;48.436;10.298;2023-03-16T09:11:44;96541.56;;;5.79;93.97
39141;BME280;24875;48.436;10.298;2023-03-16T09:14:12;96536.75;;;5.84;91.89
39141;BME280;24875;48.436;10.298;2023-03-16T09:16:39;96552.69;;;6.00;95.24
39141;BME280;24875;48.436;10.298;2023-03-16T09:19:08;96545.09;;;6.06;92.78
39141;BME280;24875;48.436;10.298;2023-03-16T09:21:38;96547.03;;;6.04;94.04
39141;BME280;24875;48.436;10.298;2023-03-16T09:24:05;96545.09;;;6.42;88.58
39141;BME280;24875;48.436;10.298;2023-03-16T09:26:34;96546.84;;;6.51;87.78
39141;BME280;24875;48.436;10.298;2023-03-16T09:29:02;96545.88;;;6.52;90.00
39141;BME280;24875;48.436;10.298;2023-03-16T09:31:32;96546.19;;;6.76;91.58
39141;BME280;24875;48.436;10.298;2023-03-16T09:34:00;96537.56;;;6.83;89.69
39141;BME280;24875;48.436;10.298;2023-03-16T09:36:29;96536.88;;;7.26;86.64
39141;BME280;24875;48.436;10.298;2023-03-16T09:38:59;96535.16;;;7.51;83.11
39141;BME280;24875;48.436;10.298;2023-03-16T09:41:40;96532.00;;;7.30;83.84
39141;BME280;24875;48.436;10.298;2023-03-16T09:44:22;96525.69;;;7.58;87.35
39141;BME280;24875;48.436;10.298;2023-03-16T09:46:56;96515.56;;;7.63;80.41
39141;BME280;24875;48.436;10.298;2023-03-16T09:49:30;96507.63;;;7.73;83.23
39141;BME280;24875;48.436;10.298;2023-03-16T09:52:05;96504.72;;;7.84;84.51
39141;BME280;24875;48.436;10.298;2023-03-16T09:54:46;96503.72;;;8.02;80.28
39141;BME280;24875;48.436;10.298;2023-03-16T09:57:23;96498.34;;;7.86;84.12
39141;BME280;24875;48.436;10.298;2023-03-16T09:59:52;96502.06;;;8.01;82.60
39141;BME280;24875;48.436;10.298;2023-03-16T10:05:14;96495.16;;;7.75;80.55
39141;BME280;24875;48.436;10.298;2023-03-16T10:07:49;96485.28;;;7.94;76.52
39141;BME280;24875;48.436;10.298;2023-03-16T10:10:38;96481.31;;;8.48;77.29
39141;BME280;24875;48.436;10.298;2023-03-16T10:13:17;96480.69;;;8.47;81.03
39141;BME280;24875;48.436;10.298;2023-03-16T10:15:53;96475.09;;;8.49;80.52
39141;BME280;24875;48.436;10.298;2023-03-16T10:18:24;96468.47;;;8.79;77.52
39141;BME280;24875;48.436;10.298;2023-03-16T10:20:54;96468.31;;;8.88;75.06
39141;BME280;24875;48.436;10.298;2023-03-16T10:23:24;96462.13;;;9.05;72.88
39141;BME280;24875;48.436;10.298;2023-03-16T10:25:54;96465.38;;;8.91;78.37
39141;BME280;24875;48.436;10.298;2023-03-16T10:28:23;96466.34;;;8.98;76.75
39141;BME280;24875;48.436;10.298;2023-03-16T10:30:54;96454.38;;;8.96;75.13
39141;BME280;24875;48.436;10.298;2023-03-16T10:33:24;96463.91;;;8.89;74.45
39141;BME280;24875;48.436;10.298;2023-03-16T10:35:56;96448.00;;;9.30;76.69
39141;BME280;24875;48.436;10.298;2023-03-16T10:38:29;96456.56;;;9.32;75.59
39141;BME280;24875;48.436;10.298;2023-03-16T10:40:59;96450.78;;;9.68;73.36
39141;BME280;24875;48.436;10.298;2023-03-16T10:43:27;96446.00;;;9.56;73.75
39141;BME280;24875;48.436;10.298;2023-03-16T10:46:00;96439.41;;;9.60;73.26
39141;BME280;24875;48.436;10.298;2023-03-16T10:48:30;96438.28;;;9.54;68.04
39141;BME280;24875;48.436;10.298;2023-03-16T10:51:01;96434.13;;;9.83;67.49
39141;BME280;24875;48.436;10.298;2023-03-16T10:53:34;96412.84;;;10.25;67.77
39141;BME280;24875;48.436;10.298;2023-03-16T10:56:10;96416.63;;;10.22;69.44
39141;BME280;24875;48.436;10.298;2023-03-16T10:58:39;96413.75;;;9.77;68.38
39141;BME280;24875;48.436;10.298;2023-03-16T11:01:14;96419.63;;;10.11;64.34
39141;BME280;24875;48.436;10.298;2023-03-16T11:03:47;96413.31;;;10.20;61.70
39141;BME280;24875;48.436;10.298;2023-03-16T11:06:20;96419.25;;;10.14;65.16
39141;BME280;24875;48.436;10.298;2023-03-16T11:08:50;96420.53;;;10.34;61.07
39141;BME280;24875;48.436;10.298;2023-03-16T11:11:25;96417.22;;;10.40;64.24
39141;BME280;24875;48.436;10.298;2023-03-16T11:13:56;96407.38;;;10.64;60.10
39141;BME280;24875;48.436;10.298;2023-03-16T11:16:30;96416.28;;;10.25;64.40
39141;BME280;24875;48.436;10.298;2023-03-16T11:19:03;96415.03;;;9.89;65.86
39141;BME280;24875;48.436;10.298;2023-03-16T11:21:40;96403.31;;;10.16;64.73
39141;BME280;24875;48.436;10.298;2023-03-16T11:24:17;96411.53;;;10.51;62.22
39141;BME280;24875;48.436;10.298;2023-03-16T11:26:53;96404.50;;;10.74;62.53
39141;BME280;24875;48.436;10.298;2023-03-16T11:29:26;96400.34;;;10.79;61.24
39141;BME280;24875;48.436;10.298;2023-03-16T11:31:58;96408.41;;;10.47;62.46
39141;BME280;24875;48.436;10.298;2023-03-16T11:34:28;96399.22;;;10.74;61.79
39141;BME280;24875;48.436;10.298;2023-03-16T11:37:00;96391.22;;;10.90;60.83
39141;BME280;24875;48.436;10.298;2023-03-16T11:39:35;96388.31;;;11.21;55.55
39141;BME280;24875;48.436;10.298;2023-03-16T11:42:26;96387.50;;;11.43;53.52
39141;BME280;24875;48.436;10.298;2023-03-16T11:44:56;96377.44;;;11.24;60.66
39141;BME280;24875;48.436;10.298;2023-03-16T11:47:53;96381.22;;;11.44;61.03
39141;BME280;24875;48.436;10.298;2023-03-16T11:50:29;96387.34;;;11.22;57.51
39141;BME280;24875;48.436;10.298;2023-03-16T11:53:06;96389.91;;;10.86;57.66
39141;BME280;24875;48.436;10.298;2023-03-16T11:55:41;96382.66;;;10.88;55.42
39141;BME280;24875;48.436;10.298;2023-03-16T11:58:34;96384.66;;;10.86;58.73
39141;BME280;24875;48.436;10.298;2023-03-16T12:01:12;96386.31;;;11.09;57.80
39141;BME280;24875;48.436;10.298;2023-03-16T12:03:56;96391.91;;;11.06;59.39
39141;BME280;24875;48.436;10.298;2023-03-16T12:06:41;96391.91;;;11.51;55.84
39141;BME280;24875;48.436;10.298;2023-03-16T12:12:25;96388.59;;;11.49;56.95
39141;BME280;24875;48.436;10.298;2023-03-16T12:15:09;96388.03;;;11.61;55.55
39141;BME280;24875;48.436;10.298;2023-03-16T12:17:44;96382.19;;;11.51;57.46
39141;BME280;24875;48.436;10.298;2023-03-16T12:20:16;96381.56;;;11.41;56.26
39141;BME280;24875;48.436;10.298;2023-03-16T12:22:49;96360.38;;;11.49;55.87
39141;BME280;24875;48.436;10.298;2023-03-16T12:25:20;96366.13;;;11.38;55.16
39141;BME280;24875;48.436;10.298;2023-03-16T12:27:51;96358.91;;;11.32;57.26
39141;BME280;24875;48.436;10.298;2023-03-16T12:30:34;96351.28;;;11.37;54.62
39141;BME280;24875;48.436;10.298;2023-03-16T12:33:07;96354.41;;;11.18;56.13
39141;BME280;24875;48.436;10.298;2023-03-16T12:35:43;96359.34;;;10.99;58.13
39141;BME280;24875;48.436;10.298;2023-03-16T12:38:28;96351.84;;;11.10;56.39
39141;BME280;24875;48.436;10.298;2023-03-16T12:41:06;96352.72;;;11.25;56.93
39141;BME280;24875;48.436;10.298;2023-03-16T12:43:45;96349.34;;;11.31;56.05
39141;BME280;24875;48.436;10.298;2023-03-16T12:46:23;96343.94;;;11.10;55.39
39141;BME280;24875;48.436;10.298;2023-03-16T12:48:57;96343.16;;;11.02;55.79
39141;BME280;24875;48.436;10.298;2023-03-16T12:51:32;96346.13;;;11.58;55.72
39141;BME280;24875;48.436;10.298;2023-03-16T12:54:01;96347.78;;;11.59;56.81
39141;BME280;24875;48.436;10.298;2023-03-16T12:56:31;96347.34;;;11.33;56.65
39141;BME280;24875;48.436;10.298;2023-03-16T12:59:02;96333.78;;;11.36;57.11
39141;BME280;24875;48.436;10.298;2023-03-16T13:01:40;96343.72;;;11.34;53.51
39141;BME280;24875;48.436;10.298;2023-03-16T13:04:11;96327.13;;;11.62;52.60
39141;BME280;24875;48.436;10.298;2023-03-16T13:06:43;96326.88;;;12.01;51.67
39141;BME280;24875;48.436;10.298;2023-03-16T13:09:16;96324.94;;;12.09;54.32
39141;BME280;24875;48.436;10.298;2023-03-16T13:11:47;96320.94;;;11.99;54.04